sensor_id;sensor_type;location;lat;lon;timestamp;P1;durP1;ratioP1;P2;durP2;ratioP2
15443;SDS011;7822;48.146;11.576;2023-03-01T00:01:14;7.43;;;4.90;;
15443;SDS011;7822;48.146;11.576;2023-03-01T00:03:43;6.10;;;5.50;;
15443;SDS011;7822;48.146;11.576;2023-03-01T00:06:11;5.30;;;4.80;;
15443;SDS011;7822;48.146;11.576;2023-03-01T00:08:39;5.57;;;4.93;;
15443;SDS011;7822;48.146;11.576;2023-03-01T00:11:08;5.30;;;4.57;;
15443;SDS011;7822;48.146;11.576;2023-03-01T00:13:37;4.63;;;4.23;;
15443;SDS011;7822;48.146;11.576;2023-03-01T00:16:07;4.83;;;4.43;;
15443;SDS011;7822;48.146;11.576;2023-03-01T00:18:36;4.77;;;4.37;;
15443;SDS011;7822;48.146;11.576;2023-03-01T00:21:04;5.40;;;4.80;;
15443;SDS011;7822;48.146;11.576;2023-03-01T00:23:33;4.60;;;4.20;;
15443;SDS011;7822;48.146;11.576;2023-03-01T00:26:02;4.80;;;4.40;;
15443;SDS011;7822;48.146;11.576;2023-03-01T00:28:33;5.60;;;4.40;;
15443;SDS011;7822;48.146;11.576;2023-03-01T00:31:02;5.50;;;4.87;;
15443;SDS011;7822;48.146;11.576;2023-03-01T00:33:32;5.47;;;4.97;;
15443;SDS011;7822;48.146;11.576;2023-03-01T00:36:00;5.37;;;4.80;;
15443;SDS011;7822;48.146;11.576;2023-03-01T00:38:29;5.20;;;4.80;;
15443;SDS011;7822;48.146;11.576;2023-03-01T00:41:02;4.70;;;4.30;;
15443;SDS011;7822;48.146;11.576;2023-03-01T00:43:31;5.43;;;4.93;;
15443;SDS011;7822;48.146;11.576;2023-03-01T00:46:02;5.43;;;4.90;;
15443;SDS011;7822;48.146;11.576;2023-03-01T00:48:30;5.57;;;4.60;;
15443;SDS011;7822;48.146;11.576;2023-03-01T00:51:03;4.37;;;3.97;;
15443;SDS011;7822;48.146;11.576;2023-03-01T00:53:32;5.03;;;4.53;;
15443;SDS011;7822;48.146;11.576;2023-03-01T00:56:00;4.43;;;4.03;;
15443;SDS011;7822;48.146;11.576;2023-03-01T00:58:28;4.73;;;4.30;;
15443;SDS011;7822;48.146;11.576;2023-03-01T01:00:56;4.97;;;4.43;;
15443;SDS011;7822;48.146;11.576;2023-03-01T01:03:24;5.37;;;4.73;;
15443;SDS011;7822;48.146;11.576;2023-03-01T01:05:53;5.37;;;4.87;;
15443;SDS011;7822;48.146;11.576;2023-03-01T01:08:21;4.40;;;4.10;;
15443;SDS011;7822;48.146;11.576;2023-03-01T01:10:48;4.70;;;4.30;;
15443;SDS011;7822;48.146;11.576;2023-03-01T01:13:16;5.07;;;4.47;;
15443;SDS011;7822;48.146;11.576;2023-03-01T01:15:44;4.57;;;4.17;;
15443;SDS011;7822;48.146;11.576;2023-03-01T01:18:11;4.60;;;4.13;;
15443;SDS011;7822;48.146;11.576;2023-03-01T01:20:39;4.53;;;4.13;;
15443;SDS011;7822;48.146;11.576;2023-03-01T01:23:08;4.83;;;4.37;;
15443;SDS011;7822;48.146;11.576;2023-03-01T01:25:35;5.10;;;4.50;;
15443;SDS011;7822;48.146;11.576;2023-03-01T01:28:03;4.60;;;4.20;;
15443;SDS011;7822;48.146;11.576;2023-03-01T01:30:31;4.90;;;4.50;;
15443;SDS011;7822;48.146;11.576;2023-03-01T01:32:58;3.87;;;3.57;;
15443;SDS011;7822;48.146;11.576;2023-03-01T01:35:27;4.80;;;4.30;;
15443;SDS011;7822;48.146;11.576;2023-03-01T01:37:54;4.53;;;4.13;;
15443;SDS011;7822;48.146;11.576;2023-03-01T01:40:23;4.40;;;4.00;;
15443;SDS011;7822;48.146;11.576;2023-03-01T01:42:51;3.97;;;3.67;;
15443;SDS011;7822;48.146;11.576;2023-03-01T01:45:30;4.67;;;4.27;;
15443;SDS011;7822;48.146;11.576;2023-03-01T01:48:02;4.67;;;4.07;;
15443;SDS011;7822;48.146;11.576;2023-03-01T01:50:32;4.53;;;4.13;;
15443;SDS011;7822;48.146;11.576;2023-03-01T01:53:05;4.93;;;4.53;;
15443;SDS011;7822;48.146;11.576;2023-03-01T01:55:37;4.43;;;4.03;;
15443;SDS011;7822;48.146;11.576;2023-03-01T01:58:09;4.40;;;3.83;;
15443;SDS011;7822;48.146;11.576;2023-03-01T02:00:40;4.20;;;3.80;;
15443;SDS011;7822;48.146;11.576;2023-03-01T02:03:09;4.17;;;3.87;;
15443;SDS011;7822;48.146;11.576;2023-03-01T02:05:41;4.17;;;3.77;;
15443;SDS011;7822;48.146;11.576;2023-03-01T02:08:20;4.20;;;3.80;;
15443;SDS011;7822;48.146;11.576;2023-03-01T02:10:51;4.50;;;4.10;;
15443;SDS011;7822;48.146;11.576;2023-03-01T02:13:22;4.30;;;3.90;;
15443;SDS011;7822;48.146;11.576;2023-03-01T02:15:50;4.13;;;3.77;;
15443;SDS011;7822;48.146;11.576;2023-03-01T02:18:18;4.60;;;4.10;;
15443;SDS011;7822;48.146;11.576;2023-03-01T02:20:50;4.20;;;3.90;;
15443;SDS011;7822;48.146;11.576;2023-03-01T02:23:28;4.20;;;3.80;;
15443;SDS011;7822;48.146;11.576;2023-03-01T02:25:58;4.13;;;3.83;;
15443;SDS011;7822;48.146;11.576;2023-03-01T02:28:35;4.30;;;3.90;;
15443;SDS011;7822;48.146;11.576;2023-03-01T02:31:04;4.20;;;3.90;;
15443;SDS011;7822;48.146;11.576;2023-03-01T02:33:52;4.40;;;4.00;;
15443;SDS011;7822;48.146;11.576;2023-03-01T02:36:21;3.93;;;3.63;;
15443;SDS011;7822;48.146;11.576;2023-03-01T02:38:52;4.20;;;3.83;;
15443;SDS011;7822;48.146;11.576;2023-03-01T02:41:24;3.90;;;3.60;;
15443;SDS011;7822;48.146;11.576;2023-03-01T02:43:56;5.03;;;3.87;;
15443;SDS011;7822;48.146;11.576;2023-03-01T02:46:25;4.13;;;3.83;;
15443;SDS011;7822;48.146;11.576;2023-03-01T02:48:54;4.30;;;3.90;;
15443;SDS011;7822;48.146;11.576;2023-03-01T02:51:26;4.40;;;4.00;;
15443;SDS011;7822;48.146;11.576;2023-03-01T02:54:05;4.10;;;3.80;;
15443;SDS011;7822;48.146;11.576;2023-03-01T02:56:39;4.07;;;3.67;;
15443;SDS011;7822;48.146;11.576;2023-03-01T02:59:09;4.10;;;3.70;;
15443;SDS011;7822;48.146;11.576;2023-03-01T03:01:38;4.17;;;3.77;;
15443;SDS011;7822;48.146;11.576;2023-03-01T03:04:08;3.97;;;3.43;;
15443;SDS011;7822;48.146;11.576;2023-03-01T03:06:37;4.33;;;3.90;;
15443;SDS011;7822;48.146;11.576;2023-03-01T03:09:05;3.50;;;3.20;;
15443;SDS011;7822;48.146;11.576;2023-03-01T03:11:34;4.33;;;3.93;;
15443;SDS011;7822;48.146;11.576;2023-03-01T03:14:03;4.03;;;3.73;;
15443;SDS011;7822;48.146;11.576;2023-03-01T03:16:32;4.27;;;3.87;;
15443;SDS011;7822;48.146;11.576;2023-03-01T03:18:59;3.53;;;3.23;;
15443;SDS011;7822;48.146;11.576;2023-03-01T03:21:31;3.90;;;3.60;;
15443;SDS011;7822;48.146;11.576;2023-03-01T03:23:59;4.07;;;3.77;;
15443;SDS011;7822;48.146;11.576;2023-03-01T03:26:26;3.70;;;3.40;;
15443;SDS011;7822;48.146;11.576;2023-03-01T03:28:55;4.13;;;3.73;;
15443;SDS011;7822;48.146;11.576;2023-03-01T03:31:23;3.77;;;3.47;;
15443;SDS011;7822;48.146;11.576;2023-03-01T03:33:52;4.10;;;3.70;;
15443;SDS011;7822;48.146;11.576;2023-03-01T03:36:20;3.80;;;3.50;;
15443;SDS011;7822;48.146;11.576;2023-03-01T03:38:49;3.83;;;3.50;;
15443;SDS011;7822;48.146;11.576;2023-03-01T03:41:17;4.03;;;3.67;;
15443;SDS011;7822;48.146;11.576;2023-03-01T03:43:45;3.90;;;3.60;;
15443;SDS011;7822;48.146;11.576;2023-03-01T03:46:13;4.27;;;3.90;;
15443;SDS011;7822;48.146;11.576;2023-03-01T03:48:41;3.67;;;3.37;;
15443;SDS011;7822;48.146;11.576;2023-03-01T03:51:13;3.63;;;3.33;;
15443;SDS011;7822;48.146;11.576;2023-03-01T03:53:42;4.33;;;3.93;;
15443;SDS011;7822;48.146;11.576;2023-03-01T03:56:10;3.83;;;3.53;;
15443;SDS011;7822;48.146;11.576;2023-03-01T03:58:38;3.70;;;3.10;;
15443;SDS011;7822;48.146;11.576;2023-03-01T04:01:06;3.97;;;3.47;;
15443;SDS011;7822;48.146;11.576;2023-03-01T04:03:34;4.17;;;3.77;;
15443;SDS011;7822;48.146;11.576;2023-03-01T04:06:02;3.90;;;3.50;;
15443;SDS011;7822;48.146;11.576;2023-03-01T04:08:32;3.60;;;3.30;;
15443;SDS011;7822;48.146;11.576;2023-03-01T04:11:01;3.50;;;3.20;;
15443;SDS011;7822;48.146;11.576;2023-03-01T04:13:52;3.77;;;3.40;;
15443;SDS011;7822;48.146;11.576;2023-03-01T04:16:21;4.10;;;3.70;;
15443;SDS011;7822;48.146;11.576;2023-03-01T04:18:49;3.83;;;3.53;;
15443;SDS011;7822;48.146;11.576;2023-03-01T04:21:18;3.90;;;3.50;;
15443;SDS011;7822;48.146;11.576;2023-03-01T04:23:47;3.97;;;3.67;;
15443;SDS011;7822;48.146;11.576;2023-03-01T04:26:18;3.63;;;3.33;;
15443;SDS011;7822;48.146;11.576;2023-03-01T04:28:46;4.10;;;3.80;;
15443;SDS011;7822;48.146;11.576;2023-03-01T04:31:17;3.70;;;3.40;;
15443;SDS011;7822;48.146;11.576;2023-03-01T04:33:48;3.23;;;3.00;;
15443;SDS011;7822;48.146;11.576;2023-03-01T04:36:19;3.80;;;3.30;;
15443;SDS011;7822;48.146;11.576;2023-03-01T04:38:50;3.63;;;3.40;;
15443;SDS011;7822;48.146;11.576;2023-03-01T04:41:19;4.10;;;3.70;;
15443;SDS011;7822;48.146;11.576;2023-03-01T04:43:48;3.53;;;3.27;;
15443;SDS011;7822;48.146;11.576;2023-03-01T04:46:16;3.30;;;3.00;;
15443;SDS011;7822;48.146;11.576;2023-03-01T04:48:45;3.37;;;3.17;;
15443;SDS011;7822;48.146;11.576;2023-03-01T04:51:14;3.93;;;3.63;;
15443;SDS011;7822;48.146;11.576;2023-03-01T04:53:42;3.87;;;3.57;;
15443;SDS011;7822;48.146;11.576;2023-03-01T04:56:12;3.43;;;3.13;;
15443;SDS011;7822;48.146;11.576;2023-03-01T04:58:41;3.47;;;3.17;;
15443;SDS011;7822;48.146;11.576;2023-03-01T05:01:09;3.83;;;3.43;;
15443;SDS011;7822;48.146;11.576;2023-03-01T05:03:42;3.50;;;3.20;;
15443;SDS011;7822;48.146;11.576;2023-03-01T05:06:10;4.00;;;3.60;;
15443;SDS011;7822;48.146;11.576;2023-03-01T05:08:38;3.60;;;3.30;;
15443;SDS011;7822;48.146;11.576;2023-03-01T05:11:06;3.30;;;3.00;;
15443;SDS011;7822;48.146;11.576;2023-03-01T05:13:36;3.40;;;3.10;;
15443;SDS011;7822;48.146;11.576;2023-03-01T05:16:06;3.50;;;3.23;;
15443;SDS011;7822;48.146;11.576;2023-03-01T05:18:38;3.83;;;3.50;;
15443;SDS011;7822;48.146;11.576;2023-03-01T05:21:07;3.30;;;3.00;;
15443;SDS011;7822;48.146;11.576;2023-03-01T05:23:36;3.80;;;3.50;;
15443;SDS011;7822;48.146;11.576;2023-03-01T05:26:05;3.30;;;3.00;;
15443;SDS011;7822;48.146;11.576;2023-03-01T05:28:48;3.60;;;3.30;;
15443;SDS011;7822;48.146;11.576;2023-03-01T05:31:16;3.50;;;3.23;;
15443;SDS011;7822;48.146;11.576;2023-03-01T05:33:44;3.40;;;3.10;;
15443;SDS011;7822;48.146;11.576;2023-03-01T05:36:11;3.07;;;2.87;;
15443;SDS011;7822;48.146;11.576;2023-03-01T05:38:39;3.20;;;3.00;;
15443;SDS011;7822;48.146;11.576;2023-03-01T05:41:12;3.77;;;3.47;;
15443;SDS011;7822;48.146;11.576;2023-03-01T05:43:41;3.53;;;3.23;;
15443;SDS011;7822;48.146;11.576;2023-03-01T05:46:12;3.40;;;3.10;;
15443;SDS011;7822;48.146;11.576;2023-03-01T05:48:41;3.83;;;3.53;;
15443;SDS011;7822;48.146;11.576;2023-03-01T05:51:09;3.30;;;3.00;;
15443;SDS011;7822;48.146;11.576;2023-03-01T05:53:38;3.20;;;2.90;;
15443;SDS011;7822;48.146;11.576;2023-03-01T05:56:05;3.33;;;3.00;;
15443;SDS011;7822;48.146;11.576;2023-03-01T05:58:33;3.43;;;3.23;;
15443;SDS011;7822;48.146;11.576;2023-03-01T06:01:01;3.70;;;3.23;;
15443;SDS011;7822;48.146;11.576;2023-03-01T06:03:30;3.50;;;3.20;;
15443;SDS011;7822;48.146;11.576;2023-03-01T06:05:57;3.17;;;2.87;;
15443;SDS011;7822;48.146;11.576;2023-03-01T06:08:25;3.43;;;3.13;;
15443;SDS011;7822;48.146;11.576;2023-03-01T06:10:53;3.63;;;3.33;;
15443;SDS011;7822;48.146;11.576;2023-03-01T06:13:22;3.70;;;3.40;;
15443;SDS011;7822;48.146;11.576;2023-03-01T06:15:50;3.60;;;3.30;;
15443;SDS011;7822;48.146;11.576;2023-03-01T06:18:18;3.40;;;3.10;;
15443;SDS011;7822;48.146;11.576;2023-03-01T06:20:53;3.90;;;3.60;;
15443;SDS011;7822;48.146;11.576;2023-03-01T06:23:21;3.30;;;3.00;;
15443;SDS011;7822;48.146;11.576;2023-03-01T06:25:49;3.80;;;3.50;;
15443;SDS011;7822;48.146;11.576;2023-03-01T06:28:16;3.70;;;3.30;;
15443;SDS011;7822;48.146;11.576;2023-03-01T06:30:44;3.03;;;2.83;;
15443;SDS011;7822;48.146;11.576;2023-03-01T06:33:12;3.80;;;3.50;;
15443;SDS011;7822;48.146;11.576;2023-03-01T06:35:39;3.73;;;3.43;;
15443;SDS011;7822;48.146;11.576;2023-03-01T06:38:08;3.50;;;3.20;;
15443;SDS011;7822;48.146;11.576;2023-03-01T06:40:36;3.60;;;3.30;;
15443;SDS011;7822;48.146;11.576;2023-03-01T06:43:04;3.50;;;3.20;;
15443;SDS011;7822;48.146;11.576;2023-03-01T06:45:33;3.03;;;2.83;;
15443;SDS011;7822;48.146;11.576;2023-03-01T06:48:01;3.27;;;2.97;;
15443;SDS011;7822;48.146;11.576;2023-03-01T06:50:30;3.43;;;3.13;;
15443;SDS011;7822;48.146;11.576;2023-03-01T06:52:58;3.53;;;3.23;;
15443;SDS011;7822;48.146;11.576;2023-03-01T06:55:27;3.37;;;3.07;;
15443;SDS011;7822;48.146;11.576;2023-03-01T06:57:55;2.87;;;2.63;;
15443;SDS011;7822;48.146;11.576;2023-03-01T07:00:23;4.33;;;3.60;;
15443;SDS011;7822;48.146;11.576;2023-03-01T07:02:52;3.27;;;3.00;;
15443;SDS011;7822;48.146;11.576;2023-03-01T07:05:20;3.60;;;3.37;;
15443;SDS011;7822;48.146;11.576;2023-03-01T07:07:48;3.90;;;3.03;;
15443;SDS011;7822;48.146;11.576;2023-03-01T07:10:16;3.50;;;3.20;;
15443;SDS011;7822;48.146;11.576;2023-03-01T07:12:45;3.60;;;3.30;;
15443;SDS011;7822;48.146;11.576;2023-03-01T07:15:13;3.40;;;3.10;;
15443;SDS011;7822;48.146;11.576;2023-03-01T07:17:41;3.70;;;2.93;;
15443;SDS011;7822;48.146;11.576;2023-03-01T07:20:11;4.10;;;3.40;;
15443;SDS011;7822;48.146;11.576;2023-03-01T07:22:39;3.27;;;2.97;;
15443;SDS011;7822;48.146;11.576;2023-03-01T07:25:08;4.43;;;3.33;;
15443;SDS011;7822;48.146;11.576;2023-03-01T07:27:36;3.13;;;2.87;;
15443;SDS011;7822;48.146;11.576;2023-03-01T07:30:06;3.27;;;2.97;;
15443;SDS011;7822;48.146;11.576;2023-03-01T07:32:34;3.50;;;3.20;;
15443;SDS011;7822;48.146;11.576;2023-03-01T07:35:02;3.60;;;3.30;;
15443;SDS011;7822;48.146;11.576;2023-03-01T07:37:30;4.43;;;3.40;;
15443;SDS011;7822;48.146;11.576;2023-03-01T07:39:58;3.13;;;2.93;;
15443;SDS011;7822;48.146;11.576;2023-03-01T07:42:25;3.70;;;3.40;;
15443;SDS011;7822;48.146;11.576;2023-03-01T07:44:53;3.50;;;3.20;;
15443;SDS011;7822;48.146;11.576;2023-03-01T07:47:22;4.47;;;3.30;;
15443;SDS011;7822;48.146;11.576;2023-03-01T07:49:50;3.90;;;3.43;;
15443;SDS011;7822;48.146;11.576;2023-03-01T07:52:17;3.80;;;3.17;;
15443;SDS011;7822;48.146;11.576;2023-03-01T07:54:45;3.87;;;3.47;;
15443;SDS011;7822;48.146;11.576;2023-03-01T07:57:13;3.43;;;3.13;;
15443;SDS011;7822;48.146;11.576;2023-03-01T07:59:40;3.50;;;3.20;;
15443;SDS011;7822;48.146;11.576;2023-03-01T08:02:08;3.50;;;3.20;;
15443;SDS011;7822;48.146;11.576;2023-03-01T08:04:38;3.60;;;3.27;;
15443;SDS011;7822;48.146;11.576;2023-03-01T08:07:06;3.63;;;3.30;;
15443;SDS011;7822;48.146;11.576;2023-03-01T08:09:34;3.50;;;3.17;;
15443;SDS011;7822;48.146;11.576;2023-03-01T08:12:02;3.90;;;3.37;;
15443;SDS011;7822;48.146;11.576;2023-03-01T08:14:30;4.30;;;3.23;;
15443;SDS011;7822;48.146;11.576;2023-03-01T08:16:58;4.07;;;3.13;;
15443;SDS011;7822;48.146;11.576;2023-03-01T08:19:25;3.47;;;3.17;;
15443;SDS011;7822;48.146;11.576;2023-03-01T08:21:55;3.07;;;2.77;;
15443;SDS011;7822;48.146;11.576;2023-03-01T08:24:24;3.47;;;3.13;;
15443;SDS011;7822;48.146;11.576;2023-03-01T08:26:52;3.70;;;3.40;;
15443;SDS011;7822;48.146;11.576;2023-03-01T08:29:19;4.07;;;3.07;;
15443;SDS011;7822;48.146;11.576;2023-03-01T08:31:47;3.57;;;3.10;;
15443;SDS011;7822;48.146;11.576;2023-03-01T08:34:16;3.63;;;3.10;;
15443;SDS011;7822;48.146;11.576;2023-03-01T08:36:45;3.27;;;3.00;;
15443;SDS011;7822;48.146;11.576;2023-03-01T08:39:16;3.47;;;3.17;;
15443;SDS011;7822;48.146;11.576;2023-03-01T08:41:45;3.50;;;3.20;;
15443;SDS011;7822;48.146;11.576;2023-03-01T08:44:14;3.77;;;3.33;;
15443;SDS011;7822;48.146;11.576;2023-03-01T08:46:43;3.50;;;3.20;;
15443;SDS011;7822;48.146;11.576;2023-03-01T08:49:12;3.23;;;3.00;;
15443;SDS011;7822;48.146;11.576;2023-03-01T08:51:42;3.10;;;2.90;;
15443;SDS011;7822;48.146;11.576;2023-03-01T08:54:10;3.93;;;3.63;;
15443;SDS011;7822;48.146;11.576;2023-03-01T08:56:42;3.30;;;3.00;;
15443;SDS011;7822;48.146;11.576;2023-03-01T08:59:10;3.57;;;3.27;;
15443;SDS011;7822;48.146;11.576;2023-03-01T09:01:38;3.77;;;3.40;;
15443;SDS011;7822;48.146;11.576;2023-03-01T09:04:06;3.67;;;3.37;;
15443;SDS011;7822;48.146;11.576;2023-03-01T09:06:33;3.77;;;3.47;;
15443;SDS011;7822;48.146;11.576;2023-03-01T09:09:02;3.60;;;3.23;;
15443;SDS011;7822;48.146;11.576;2023-03-01T09:11:31;4.13;;;3.40;;
15443;SDS011;7822;48.146;11.576;2023-03-01T09:14:00;3.50;;;3.20;;
15443;SDS011;7822;48.146;11.576;2023-03-01T09:16:28;3.47;;;3.17;;
15443;SDS011;7822;48.146;11.576;2023-03-01T09:19:00;3.20;;;2.90;;
15443;SDS011;7822;48.146;11.576;2023-03-01T09:21:27;3.27;;;3.03;;
15443;SDS011;7822;48.146;11.576;2023-03-01T09:24:06;3.30;;;3.00;;
15443;SDS011;7822;48.146;11.576;2023-03-01T09:26:39;3.53;;;3.00;;
15443;SDS011;7822;48.146;11.576;2023-03-01T09:29:08;3.23;;;2.87;;
15443;SDS011;7822;48.146;11.576;2023-03-01T09:31:36;3.60;;;3.20;;
15443;SDS011;7822;48.146;11.576;2023-03-01T09:34:04;3.47;;;3.17;;
15443;SDS011;7822;48.146;11.576;2023-03-01T09:36:32;3.50;;;3.20;;
15443;SDS011;7822;48.146;11.576;2023-03-01T09:39:00;3.70;;;3.30;;
15443;SDS011;7822;48.146;11.576;2023-03-01T09:41:36;3.47;;;3.17;;
15443;SDS011;7822;48.146;11.576;2023-03-01T09:44:13;3.50;;;3.20;;
15443;SDS011;7822;48.146;11.576;2023-03-01T09:46:48;3.40;;;3.10;;
15443;SDS011;7822;48.146;11.576;2023-03-01T09:49:17;3.33;;;3.03;;
15443;SDS011;7822;48.146;11.576;2023-03-01T09:51:48;3.47;;;3.17;;
15443;SDS011;7822;48.146;11.576;2023-03-01T09:54:22;3.43;;;3.13;;
15443;SDS011;7822;48.146;11.576;2023-03-01T09:56:54;3.80;;;3.23;;
15443;SDS011;7822;48.146;11.576;2023-03-01T09:59:32;3.40;;;3.10;;
15443;SDS011;7822;48.146;11.576;2023-03-01T10:02:12;3.20;;;2.90;;
15443;SDS011;7822;48.146;11.576;2023-03-01T10:04:51;3.53;;;2.93;;
15443;SDS011;7822;48.146;11.576;2023-03-01T10:07:23;3.20;;;2.90;;
15443;SDS011;7822;48.146;11.576;2023-03-01T10:09:57;3.30;;;3.00;;
15443;SDS011;7822;48.146;11.576;2023-03-01T10:12:27;3.40;;;3.10;;
15443;SDS011;7822;48.146;11.576;2023-03-01T10:15:02;3.80;;;3.40;;
15443;SDS011;7822;48.146;11.576;2023-03-01T10:17:37;2.73;;;2.53;;
15443;SDS011;7822;48.146;11.576;2023-03-01T10:20:19;4.27;;;3.30;;
15443;SDS011;7822;48.146;11.576;2023-03-01T10:22:50;3.70;;;3.40;;
15443;SDS011;7822;48.146;11.576;2023-03-01T10:25:22;3.40;;;3.10;;
15443;SDS011;7822;48.146;11.576;2023-03-01T10:27:59;3.50;;;3.20;;
15443;SDS011;7822;48.146;11.576;2023-03-01T10:30:34;3.30;;;3.00;;
15443;SDS011;7822;48.146;11.576;2023-03-01T10:33:07;3.10;;;2.87;;
15443;SDS011;7822;48.146;11.576;2023-03-01T10:35:43;3.60;;;3.30;;
15443;SDS011;7822;48.146;11.576;2023-03-01T10:38:11;3.87;;;3.57;;
15443;SDS011;7822;48.146;11.576;2023-03-01T10:40:50;3.00;;;2.70;;
15443;SDS011;7822;48.146;11.576;2023-03-01T10:43:19;3.30;;;3.00;;
15443;SDS011;7822;48.146;11.576;2023-03-01T10:45:49;4.50;;;3.30;;
15443;SDS011;7822;48.146;11.576;2023-03-01T10:48:18;3.43;;;3.13;;
15443;SDS011;7822;48.146;11.576;2023-03-01T10:50:50;3.53;;;3.23;;
15443;SDS011;7822;48.146;11.576;2023-03-01T10:53:32;3.80;;;3.50;;
15443;SDS011;7822;48.146;11.576;2023-03-01T10:56:02;3.30;;;2.90;;
15443;SDS011;7822;48.146;11.576;2023-03-01T10:58:32;3.23;;;3.00;;
15443;SDS011;7822;48.146;11.576;2023-03-01T11:01:03;3.60;;;3.30;;
15443;SDS011;7822;48.146;11.576;2023-03-01T11:03:33;3.47;;;3.17;;
15443;SDS011;7822;48.146;11.576;2023-03-01T11:06:03;3.47;;;3.17;;
15443;SDS011;7822;48.146;11.576;2023-03-01T11:08:48;3.47;;;3.17;;
15443;SDS011;7822;48.146;11.576;2023-03-01T11:11:22;3.93;;;3.40;;
15443;SDS011;7822;48.146;11.576;2023-03-01T11:13:54;3.60;;;3.30;;
15443;SDS011;7822;48.146;11.576;2023-03-01T11:16:26;3.50;;;3.20;;
15443;SDS011;7822;48.146;11.576;2023-03-01T11:18:56;3.73;;;3.17;;
15443;SDS011;7822;48.146;11.576;2023-03-01T11:21:26;3.70;;;3.40;;
15443;SDS011;7822;48.146;11.576;2023-03-01T11:23:59;3.30;;;3.00;;
15443;SDS011;7822;48.146;11.576;2023-03-01T11:26:28;3.67;;;3.07;;
15443;SDS011;7822;48.146;11.576;2023-03-01T11:28:59;4.47;;;3.60;;
15443;SDS011;7822;48.146;11.576;2023-03-01T11:31:32;3.40;;;3.10;;
15443;SDS011;7822;48.146;11.576;2023-03-01T11:34:03;3.50;;;3.20;;
15443;SDS011;7822;48.146;11.576;2023-03-01T11:36:39;3.40;;;3.10;;
15443;SDS011;7822;48.146;11.576;2023-03-01T11:39:15;3.57;;;3.27;;
15443;SDS011;7822;48.146;11.576;2023-03-01T11:41:48;3.30;;;3.00;;
15443;SDS011;7822;48.146;11.576;2023-03-01T11:44:20;3.50;;;3.20;;
15443;SDS011;7822;48.146;11.576;2023-03-01T11:47:01;3.23;;;2.93;;
15443;SDS011;7822;48.146;11.576;2023-03-01T11:49:42;3.30;;;3.00;;
15443;SDS011;7822;48.146;11.576;2023-03-01T11:52:21;3.20;;;2.90;;
15443;SDS011;7822;48.146;11.576;2023-03-01T11:55:04;3.27;;;3.07;;
15443;SDS011;7822;48.146;11.576;2023-03-01T11:57:49;3.83;;;3.50;;
15443;SDS011;7822;48.146;11.576;2023-03-01T12:00:36;3.60;;;3.30;;
15443;SDS011;7822;48.146;11.576;2023-03-01T12:03:23;3.33;;;3.03;;
15443;SDS011;7822;48.146;11.576;2023-03-01T12:08:57;3.20;;;2.90;;
15443;SDS011;7822;48.146;11.576;2023-03-01T12:11:39;3.53;;;3.23;;
15443;SDS011;7822;48.146;11.576;2023-03-01T12:14:17;3.40;;;3.10;;
15443;SDS011;7822;48.146;11.576;2023-03-01T12:17:04;3.53;;;2.87;;
15443;SDS011;7822;48.146;11.576;2023-03-01T12:22:43;3.47;;;3.17;;
15443;SDS011;7822;48.146;11.576;2023-03-01T12:25:44;3.30;;;3.00;;
15443;SDS011;7822;48.146;11.576;2023-03-01T12:28:26;4.27;;;3.70;;
15443;SDS011;7822;48.146;11.576;2023-03-01T12:31:07;3.93;;;3.63;;
15443;SDS011;7822;48.146;11.576;2023-03-01T12:34:01;3.40;;;3.10;;
15443;SDS011;7822;48.146;11.576;2023-03-01T12:39:39;3.10;;;2.80;;
15443;SDS011;7822;48.146;11.576;2023-03-01T12:42:20;3.70;;;3.30;;
15443;SDS011;7822;48.146;11.576;2023-03-01T12:45:03;3.73;;;3.37;;
15443;SDS011;7822;48.146;11.576;2023-03-01T12:47:53;3.60;;;3.30;;
15443;SDS011;7822;48.146;11.576;2023-03-01T12:50:34;3.03;;;2.73;;
15443;SDS011;7822;48.146;11.576;2023-03-01T12:53:13;3.67;;;3.37;;
15443;SDS011;7822;48.146;11.576;2023-03-01T12:55:49;4.20;;;3.60;;
15443;SDS011;7822;48.146;11.576;2023-03-01T12:58:21;3.60;;;3.30;;
15443;SDS011;7822;48.146;11.576;2023-03-01T13:01:14;3.20;;;2.90;;
15443;SDS011;7822;48.146;11.576;2023-03-01T13:03:56;3.43;;;3.13;;
15443;SDS011;7822;48.146;11.576;2023-03-01T13:06:35;3.27;;;3.07;;
15443;SDS011;7822;48.146;11.576;2023-03-01T13:09:13;3.63;;;3.33;;
15443;SDS011;7822;48.146;11.576;2023-03-01T13:11:46;3.50;;;3.20;;
15443;SDS011;7822;48.146;11.576;2023-03-01T13:17:07;3.33;;;3.03;;
15443;SDS011;7822;48.146;11.576;2023-03-01T13:19:58;3.70;;;3.20;;
15443;SDS011;7822;48.146;11.576;2023-03-01T13:22:28;4.23;;;3.27;;
15443;SDS011;7822;48.146;11.576;2023-03-01T13:27:51;3.53;;;3.23;;
15443;SDS011;7822;48.146;11.576;2023-03-01T13:30:57;3.30;;;3.00;;
15443;SDS011;7822;48.146;11.576;2023-03-01T13:33:40;3.93;;;3.30;;
15443;SDS011;7822;48.146;11.576;2023-03-01T13:42:03;3.60;;;3.30;;
15443;SDS011;7822;48.146;11.576;2023-03-01T13:44:32;3.53;;;3.23;;
15443;SDS011;7822;48.146;11.576;2023-03-01T13:47:05;3.43;;;3.13;;
15443;SDS011;7822;48.146;11.576;2023-03-01T13:49:45;3.87;;;3.43;;
15443;SDS011;7822;48.146;11.576;2023-03-01T13:52:24;3.63;;;3.33;;
15443;SDS011;7822;48.146;11.576;2023-03-01T13:55:03;3.40;;;3.10;;
15443;SDS011;7822;48.146;11.576;2023-03-01T13:57:44;3.83;;;3.53;;
15443;SDS011;7822;48.146;11.576;2023-03-01T14:00:27;3.83;;;3.43;;
15443;SDS011;7822;48.146;11.576;2023-03-01T14:03:02;4.07;;;3.70;;
15443;SDS011;7822;48.146;11.576;2023-03-01T14:05:32;3.37;;;3.07;;
15443;SDS011;7822;48.146;11.576;2023-03-01T14:08:02;3.70;;;3.30;;
15443;SDS011;7822;48.146;11.576;2023-03-01T14:10:31;3.83;;;3.40;;
15443;SDS011;7822;48.146;11.576;2023-03-01T14:13:12;4.47;;;4.07;;
15443;SDS011;7822;48.146;11.576;2023-03-01T14:16:00;3.60;;;3.30;;
15443;SDS011;7822;48.146;11.576;2023-03-01T14:18:42;3.57;;;3.27;;
15443;SDS011;7822;48.146;11.576;2023-03-01T14:21:19;3.90;;;3.40;;
15443;SDS011;7822;48.146;11.576;2023-03-01T14:23:48;4.00;;;3.60;;
15443;SDS011;7822;48.146;11.576;2023-03-01T14:26:19;4.37;;;3.63;;
15443;SDS011;7822;48.146;11.576;2023-03-01T14:28:50;3.87;;;3.57;;
15443;SDS011;7822;48.146;11.576;2023-03-01T14:34:20;3.80;;;3.47;;
15443;SDS011;7822;48.146;11.576;2023-03-01T14:36:49;3.57;;;3.27;;
15443;SDS011;7822;48.146;11.576;2023-03-01T14:39:17;3.97;;;3.43;;
15443;SDS011;7822;48.146;11.576;2023-03-01T14:41:47;3.57;;;3.27;;
15443;SDS011;7822;48.146;11.576;2023-03-01T14:44:18;3.13;;;2.93;;
15443;SDS011;7822;48.146;11.576;2023-03-01T14:46:53;3.83;;;3.43;;
15443;SDS011;7822;48.146;11.576;2023-03-01T14:49:24;3.80;;;3.47;;
15443;SDS011;7822;48.146;11.576;2023-03-01T14:51:57;3.63;;;3.33;;
15443;SDS011;7822;48.146;11.576;2023-03-01T14:54:31;3.67;;;3.33;;
15443;SDS011;7822;48.146;11.576;2023-03-01T14:57:12;3.80;;;3.40;;
15443;SDS011;7822;48.146;11.576;2023-03-01T14:59:44;3.97;;;3.30;;
15443;SDS011;7822;48.146;11.576;2023-03-01T15:02:15;3.53;;;3.23;;
15443;SDS011;7822;48.146;11.576;2023-03-01T15:04:45;3.80;;;3.50;;
15443;SDS011;7822;48.146;11.576;2023-03-01T15:07:15;4.53;;;3.70;;
15443;SDS011;7822;48.146;11.576;2023-03-01T15:09:43;3.17;;;2.97;;
15443;SDS011;7822;48.146;11.576;2023-03-01T15:15:20;3.93;;;3.40;;
15443;SDS011;7822;48.146;11.576;2023-03-01T15:18:02;3.60;;;3.30;;
15443;SDS011;7822;48.146;11.576;2023-03-01T15:20:32;4.20;;;3.53;;
15443;SDS011;7822;48.146;11.576;2023-03-01T15:23:02;3.33;;;3.03;;
15443;SDS011;7822;48.146;11.576;2023-03-01T15:25:31;3.57;;;3.27;;
15443;SDS011;7822;48.146;11.576;2023-03-01T15:28:00;3.63;;;3.33;;
15443;SDS011;7822;48.146;11.576;2023-03-01T15:30:32;3.40;;;3.10;;
15443;SDS011;7822;48.146;11.576;2023-03-01T15:33:17;3.77;;;3.40;;
15443;SDS011;7822;48.146;11.576;2023-03-01T15:35:48;3.83;;;3.53;;
15443;SDS011;7822;48.146;11.576;2023-03-01T15:38:30;3.90;;;3.50;;
15443;SDS011;7822;48.146;11.576;2023-03-01T15:41:05;4.13;;;3.73;;